Portada
METAR-TAF:

METAR-TAF

Aeropuertos :

Aeropuerto Internacional Baikal

Ulán-Udé, Rusia

latitud: 51-50N, longitud: 107-36E, altitud: 510 m

Observación

El informe se hizo hace 37 minutos, a las 22:00 UTC
Viento 2 kt con dirección variable
Temperatura -20°C
Humedad 77%
Presión 1022 hPa
Visibilidad 10 km o más
Escasas nubes a una altura de 4000 ft

METAR: UIUU 202200Z VRB01MPS 9999 FEW040 M20/M23 Q1022 R26/810555 NOSIG RMK QFE722/0963

Hora: 06:37 (22:37 UTC)

Pronóstico

El informe se hizo hace 2 horas y 37 minutos, a las 20:00 UTC
Pronóstico válido del 20 a las 21 UTC al 21 a las 21 UTC
Viento 10 kt del oeste
Visibilidad 10 km o más
Nubes dispersas a una altura de 3000 ft, Cumulonimbus.
Temporalmente
del 20 a las 21 UTC al 21 a las 06 UTC
Viento 6 kt del este
Visibilidad: 2100 m
Cielo nuboso a una altura de 1100 ft, Cumulonimbus.
chaparrones de nieve, neblina

TAF: UIUU 202000Z 2021/2121 26005MPS 9999 SCT030CB TEMPO 2021/2106 10003MPS 2100 -SHSN BR BKN011CB

Observaciones y pronósticos meteorológicos de más de 4000 aeropuertos (mensajes METAR y TAF).

Los puntos amarillos y rojos representan las estaciones disponibles.

Ponga el ratón en el punto deseado para ver el nombre de la estación.

Haga clic para ver las observaciones y los pronósticos meteorológicos.

Para cambiar el mapa : haga clic en los botones verdes con una cruz de color negro para hacer un zoom, en el botón verde con un guión para alejar o en las flechas verdes para mapas adyacentes.


METAR-TAF: